Clinton, Illinois
Current Conditions -  °F | °C
As of 10:15 AM on Friday 21 Nov 2014 (Local Time) from KAAA Reporting Station
Clear Clear  
Wind Chill: 18°   Ceiling: Unl
Heat Index: 28°   Visibility: 10mi
Dew Point: 11°   Wind: 10mph
Humidity: 49%   Direction: 130°SE
Pressure: 30.47"   Gusts: NA
Location:  40.15°N, 88.96°W
Report Text: KAAA 211615Z AUTO 13009KT 10SM CLR M02/M12 A3047 RMK AO2 T10241118
Loading
Personal Weather Stations






























Interactive Weather Map New forecast layout! Learn more

10-Day Weather Forecast

Advertisements
Track Severe Weather on mobile